Time;durP1;ratioP1;P1;durP2;ratioP2;P2;SDS_P1;SDS_P2;PMS_P1;PMS_P2;Temp;Humidity;BMP_temperature;BMP_pressure;BME280_temperature;BME280_humidity;BME280_pressure;Samples;Min_cycle;Max_cycle;Signal;HPM_P1;HPM_P2
2023/06/25 00:00:56;;;;;;;22.08;19.00;;;24.60;93.10;;;;;;5016063;28;20025;-70
2023/06/25 00:03:23;;;;;;;20.92;18.80;;;24.60;93.10;;;;;;5016051;28;20044;-69
2023/06/25 00:05:48;;;;;;;21.25;18.00;;;24.60;93.10;;;;;;5015982;28;20026;-68
2023/06/25 00:08:14;;;;;;;20.58;18.38;;;24.60;93.10;;;;;;5015995;28;20032;-69
2023/06/25 00:10:40;;;;;;;20.48;18.27;;;24.60;93.30;;;;;;5015449;28;20121;-68
2023/06/25 00:13:05;;;;;;;20.52;18.35;;;24.50;93.40;;;;;;5015981;28;20084;-69
2023/06/25 00:15:31;;;;;;;21.08;18.65;;;24.50;93.40;;;;;;5015616;28;20081;-69
2023/06/25 00:17:56;;;;;;;20.77;18.58;;;24.40;93.40;;;;;;5015753;28;20459;-69
2023/06/25 00:20:25;;;;;;;21.17;18.65;;;24.40;93.50;;;;;;5015670;28;20076;-69
2023/06/25 00:22:50;;;;;;;19.85;17.85;;;24.40;93.60;;;;;;5015923;28;20072;-68
2023/06/25 00:25:17;;;;;;;20.77;18.17;;;24.40;93.60;;;;;;5015266;28;20030;-69
2023/06/25 00:27:47;;;;;;;20.33;18.13;;;24.40;93.70;;;;;;5015699;28;20030;-68
2023/06/25 00:30:16;;;;;;;20.35;18.27;;;24.30;93.80;;;;;;5015478;28;20088;-72
2023/06/25 00:32:42;;;;;;;20.23;17.90;;;24.30;93.80;;;;;;5015635;28;20049;-68
2023/06/25 00:35:12;;;;;;;19.02;16.45;;;24.30;93.80;;;;;;5014192;28;20049;-68
2023/06/25 00:37:41;;;;;;;20.77;17.42;;;24.30;93.80;;;;;;5015540;28;20033;-68
2023/06/25 00:40:10;;;;;;;22.42;19.10;;;24.30;93.70;;;;;;5014963;28;20041;-70
2023/06/25 00:42:41;;;;;;;18.95;16.70;;;24.30;93.60;;;;;;5015502;28;20022;-68
2023/06/25 00:45:11;;;;;;;19.48;17.42;;;24.20;93.70;;;;;;5015459;28;20022;-69
2023/06/25 00:47:38;;;;;;;19.33;17.02;;;24.20;93.70;;;;;;5015250;28;20364;-69
2023/06/25 00:50:05;;;;;;;20.60;18.08;;;24.20;93.90;;;;;;5015198;28;20205;-69
2023/06/25 00:52:31;;;;;;;20.30;18.00;;;24.20;93.80;;;;;;5014918;28;20026;-71
2023/06/25 00:54:56;;;;;;;23.17;18.23;;;24.20;93.60;;;;;;5015055;28;20033;-68
2023/06/25 00:57:22;;;;;;;23.52;17.80;;;24.10;93.60;;;;;;5015079;28;20374;-70
2023/06/25 00:59:48;;;;;;;21.15;17.48;;;24.10;93.50;;;;;;5015126;28;20034;-70
2023/06/25 01:02:23;;;;;;;20.85;18.60;;;24.10;93.50;;;;;;5014927;28;20022;-69
2023/06/25 01:05:02;;;;;;;22.80;18.70;;;24.10;93.90;;;;;;5015003;28;20467;-68
2023/06/25 01:07:28;;;;;;;20.50;17.63;;;24.10;93.50;;;;;;5014613;28;20029;-71
2023/06/25 01:09:55;;;;;;;20.17;17.85;;;24.00;93.70;;;;;;5014881;28;20045;-69
2023/06/25 01:12:21;;;;;;;21.55;18.05;;;24.10;93.70;;;;;;5014705;28;20537;-70
2023/06/25 01:14:49;;;;;;;19.98;17.65;;;24.10;94.00;;;;;;5014796;28;20026;-71
2023/06/25 01:17:15;;;;;;;21.35;18.33;;;24.10;93.70;;;;;;5014674;28;20022;-68
2023/06/25 01:19:41;;;;;;;21.73;19.17;;;24.10;93.70;;;;;;5014892;28;20021;-71
2023/06/25 01:22:07;;;;;;;21.17;17.50;;;24.00;93.70;;;;;;5014277;28;20025;-68
2023/06/25 01:24:36;;;;;;;21.40;19.10;;;24.00;93.90;;;;;;5014556;28;20026;-68
2023/06/25 01:27:05;;;;;;;21.27;18.98;;;24.00;93.70;;;;;;5014509;28;20034;-68
2023/06/25 01:29:34;;;;;;;23.08;18.40;;;24.00;93.80;;;;;;5014434;28;20061;-69
2023/06/25 01:31:59;;;;;;;21.40;19.02;;;23.90;94.00;;;;;;5014459;28;20041;-71
2023/06/25 01:34:25;;;;;;;23.83;19.92;;;24.00;93.80;;;;;;5013055;28;20018;-70
2023/06/25 01:36:52;;;;;;;22.70;19.98;;;23.90;93.80;;;;;;5014045;28;20057;-72
2023/06/25 01:39:19;;;;;;;21.67;19.10;;;23.90;93.80;;;;;;5014376;28;20374;-68
2023/06/25 01:41:45;;;;;;;21.48;19.15;;;23.90;93.80;;;;;;5012899;28;20030;-69
2023/06/25 01:44:13;;;;;;;22.67;19.38;;;23.90;93.70;;;;;;5014441;28;20153;-73
2023/06/25 01:46:38;;;;;;;21.92;19.20;;;23.90;93.80;;;;;;5013798;28;20030;-71
2023/06/25 01:49:04;;;;;;;23.15;19.73;;;23.80;94.00;;;;;;5014087;28;20109;-74
2023/06/25 01:51:31;;;;;;;23.70;20.35;;;23.80;94.00;;;;;;5013592;28;20034;-70
2023/06/25 01:53:58;;;;;;;24.73;20.70;;;23.80;93.90;;;;;;5014177;28;20485;-73
2023/06/25 01:56:23;;;;;;;23.88;19.95;;;23.80;93.90;;;;;;5013886;28;20132;-74
2023/06/25 01:58:52;;;;;;;23.65;19.38;;;23.70;93.90;;;;;;5013962;28;20431;-69
2023/06/25 02:01:21;;;;;;;23.38;19.30;;;23.80;93.80;;;;;;5013882;28;20103;-69
2023/06/25 02:03:47;;;;;;;26.27;21.52;;;23.80;93.80;;;;;;5013882;28;20046;-71
2023/06/25 02:06:13;;;;;;;23.48;19.30;;;23.70;93.80;;;;;;5013581;28;20025;-70
2023/06/25 02:08:39;;;;;;;23.63;20.02;;;23.70;93.80;;;;;;5013853;28;20312;-70
2023/06/25 02:11:06;;;;;;;25.52;21.63;;;23.70;93.80;;;;;;5012495;28;20042;-68
2023/06/25 02:13:33;;;;;;;22.95;20.50;;;23.70;93.80;;;;;;5013619;28;20033;-71
2023/06/25 02:15:59;;;;;;;24.42;20.83;;;23.70;93.80;;;;;;5013683;28;20018;-71
2023/06/25 02:18:24;;;;;;;25.15;19.95;;;23.70;93.80;;;;;;5013508;28;20029;-71
2023/06/25 02:20:50;;;;;;;24.98;21.95;;;23.70;93.90;;;;;;5013579;28;20026;-71
2023/06/25 02:23:15;;;;;;;27.40;22.35;;;23.60;94.00;;;;;;5013607;28;20044;-68
2023/06/25 02:25:41;;;;;;;25.05;22.00;;;23.60;94.00;;;;;;5013669;28;20030;-68
2023/06/25 02:28:06;;;;;;;23.58;21.02;;;23.60;94.00;;;;;;5013360;28;20018;-68
2023/06/25 02:30:32;;;;;;;23.45;21.02;;;23.60;94.00;;;;;;5013477;28;20034;-73
2023/06/25 02:32:57;;;;;;;25.42;21.67;;;23.50;94.10;;;;;;5013459;28;20505;-70
2023/06/25 02:35:23;;;;;;;27.58;21.08;;;23.60;94.10;;;;;;5014018;28;20471;-70
2023/06/25 02:37:49;;;;;;;23.45;20.40;;;23.50;94.10;;;;;;5029613;28;20356;-71
2023/06/25 02:40:14;;;;;;;23.80;20.48;;;23.50;94.10;;;;;;5033012;28;20493;-70
2023/06/25 02:42:40;;;;;;;24.95;21.33;;;23.50;94.10;;;;;;5030062;28;20108;-72
2023/06/25 02:45:06;;;;;;;26.10;21.30;;;23.50;94.20;;;;;;5032411;28;20034;-69
2023/06/25 02:47:31;;;;;;;24.40;21.67;;;23.40;94.20;;;;;;5032807;28;20526;-70
2023/06/25 02:49:57;;;;;;;27.10;21.33;;;23.40;94.20;;;;;;5032765;28;20116;-71
2023/06/25 02:52:23;;;;;;;24.20;21.02;;;23.40;94.30;;;;;;5033033;28;20090;-70
2023/06/25 02:54:48;;;;;;;26.83;22.30;;;23.40;94.40;;;;;;5031961;28;20032;-69
2023/06/25 02:57:14;;;;;;;25.00;22.30;;;23.40;94.40;;;;;;5033038;28;20025;-69
2023/06/25 02:59:39;;;;;;;24.90;22.30;;;23.30;94.40;;;;;;5035113;28;20029;-72
2023/06/25 03:02:05;;;;;;;25.92;21.15;;;23.30;94.60;;;;;;5037058;28;20033;-73
2023/06/25 03:04:30;;;;;;;26.08;22.40;;;23.30;94.50;;;;;;5036674;28;20030;-72
2023/06/25 03:06:56;;;;;;;24.35;21.73;;;23.40;94.60;;;;;;5037036;28;20025;-72
2023/06/25 03:09:22;;;;;;;24.85;21.58;;;23.30;94.70;;;;;;5036843;28;20067;-69
2023/06/25 03:11:47;;;;;;;22.60;20.17;;;23.30;94.80;;;;;;5036723;28;20069;-71
2023/06/25 03:14:13;;;;;;;27.40;21.67;;;23.30;94.90;;;;;;5036830;28;20026;-71
2023/06/25 03:16:39;;;;;;;25.80;22.20;;;23.30;94.90;;;;;;5036699;28;20444;-70
2023/06/25 03:19:05;;;;;;;26.08;22.52;;;23.30;95.00;;;;;;5036429;28;20080;-73
2023/06/25 03:21:30;;;;;;;31.20;23.67;;;23.20;94.90;;;;;;5036736;28;20544;-69
2023/06/25 03:23:56;;;;;;;29.40;22.92;;;23.30;95.00;;;;;;5036740;28;20025;-68
2023/06/25 03:26:22;;;;;;;25.27;22.35;;;23.20;95.00;;;;;;5036584;28;20021;-68
2023/06/25 03:28:47;;;;;;;27.58;23.45;;;23.30;95.10;;;;;;5036406;28;20018;-73
2023/06/25 03:31:13;;;;;;;28.00;23.17;;;23.20;95.10;;;;;;5036453;28;20490;-69
2023/06/25 03:33:39;;;;;;;27.23;23.40;;;23.20;95.20;;;;;;5036122;28;20025;-70
2023/06/25 03:36:04;;;;;;;25.00;21.92;;;23.20;95.30;;;;;;5036495;28;20055;-72
2023/06/25 03:38:30;;;;;;;29.58;24.83;;;23.20;95.40;;;;;;5036221;28;20025;-70
2023/06/25 03:40:55;;;;;;;31.35;23.23;;;23.10;95.70;;;;;;5036079;28;20033;-69
2023/06/25 03:43:21;;;;;;;26.90;22.67;;;23.20;95.50;;;;;;5036222;28;20039;-72
2023/06/25 03:45:47;;;;;;;30.42;24.38;;;23.10;95.60;;;;;;5036248;28;20025;-71
2023/06/25 03:48:12;;;;;;;29.05;24.25;;;23.10;95.70;;;;;;5036028;28;20026;-72
2023/06/25 03:50:38;;;;;;;29.20;24.65;;;23.10;95.70;;;;;;5035906;28;20041;-70
2023/06/25 03:53:03;;;;;;;29.20;23.45;;;23.10;95.80;;;;;;5036258;28;20096;-71
2023/06/25 03:55:29;;;;;;;28.52;24.75;;;23.10;95.90;;;;;;5035957;28;20029;-72
2023/06/25 03:57:56;;;;;;;27.95;22.92;;;23.10;95.90;;;;;;5036060;28;20021;-68
2023/06/25 04:00:22;;;;;;;28.00;23.30;;;23.10;95.90;;;;;;5035893;28;20029;-73
2023/06/25 04:02:47;;;;;;;30.10;22.75;;;23.10;96.00;;;;;;5035595;28;20024;-73
2023/06/25 04:05:13;;;;;;;27.30;22.75;;;23.00;95.90;;;;;;5035744;28;20501;-70
2023/06/25 04:07:38;;;;;;;29.20;22.95;;;23.00;96.00;;;;;;5035928;28;20463;-69
2023/06/25 04:10:04;;;;;;;26.30;22.90;;;23.00;96.40;;;;;;5035737;28;20061;-72
2023/06/25 04:12:30;;;;;;;28.15;22.77;;;23.00;96.20;;;;;;5034593;28;20029;-71
2023/06/25 04:14:56;;;;;;;28.58;23.25;;;23.00;96.10;;;;;;5035635;28;20382;-73
2023/06/25 04:17:22;;;;;;;27.80;24.27;;;22.90;96.30;;;;;;5035437;28;20414;-67
2023/06/25 04:19:47;;;;;;;33.58;23.88;;;22.90;96.50;;;;;;5035530;28;20029;-68
2023/06/25 04:22:13;;;;;;;31.10;24.48;;;22.90;96.50;;;;;;5035694;28;20053;-67
2023/06/25 04:24:38;;;;;;;30.30;25.15;;;22.90;96.70;;;;;;5035233;28;20550;-72
2023/06/25 04:27:05;;;;;;;30.48;26.10;;;23.00;96.70;;;;;;5035523;28;20033;-71
2023/06/25 04:29:30;;;;;;;28.45;25.20;;;23.00;96.60;;;;;;5035278;28;20386;-69
2023/06/25 04:31:56;;;;;;;30.85;25.80;;;22.90;96.60;;;;;;5035132;28;20482;-68
2023/06/25 04:34:21;;;;;;;32.22;26.00;;;23.00;96.70;;;;;;5035304;28;20021;-68
2023/06/25 04:36:47;;;;;;;31.63;26.88;;;22.90;96.70;;;;;;5035203;28;20485;-68
2023/06/25 04:39:12;;;;;;;33.05;26.80;;;22.90;96.80;;;;;;5035266;28;20022;-70
2023/06/25 04:41:38;;;;;;;31.40;26.60;;;22.90;96.90;;;;;;5035056;28;20053;-72
2023/06/25 04:44:04;;;;;;;33.97;26.33;;;22.90;97.00;;;;;;5035131;28;20025;-68
2023/06/25 04:46:29;;;;;;;31.55;25.60;;;22.90;97.10;;;;;;5034836;28;20029;-70
2023/06/25 04:48:55;;;;;;;32.15;26.20;;;22.90;97.20;;;;;;5035088;28;20497;-70
2023/06/25 04:51:20;;;;;;;31.88;26.23;;;22.90;97.20;;;;;;5034962;28;20109;-69
2023/06/25 04:53:46;;;;;;;31.35;26.35;;;22.90;97.20;;;;;;5034972;28;20104;-70
2023/06/25 04:56:11;;;;;;;36.35;27.02;;;23.00;97.20;;;;;;5034845;28;20025;-68
2023/06/25 04:58:37;;;;;;;31.75;25.70;;;22.90;97.20;;;;;;5034855;28;20018;-69
2023/06/25 05:01:03;;;;;;;33.58;26.85;;;22.90;97.20;;;;;;5034417;28;20467;-70
2023/06/25 05:03:29;;;;;;;29.30;24.90;;;22.80;97.10;;;;;;5034744;28;20028;-72
2023/06/25 05:05:54;;;;;;;33.15;26.63;;;22.80;97.10;;;;;;5034176;28;20100;-69
2023/06/25 05:08:20;;;;;;;30.15;25.58;;;22.90;97.30;;;;;;5033805;28;20052;-70
2023/06/25 05:10:46;;;;;;;32.50;25.98;;;22.80;97.10;;;;;;5034231;28;20088;-68
2023/06/25 05:13:11;;;;;;;31.48;25.55;;;22.80;97.20;;;;;;5034567;28;20390;-70
2023/06/25 05:15:40;;;;;;;29.63;25.05;;;22.90;97.30;;;;;;5034349;28;20057;-70
2023/06/25 05:18:08;;;;;;;32.13;23.95;;;22.80;97.20;;;;;;5034539;28;20080;-71
2023/06/25 05:20:35;;;;;;;29.17;23.15;;;22.90;97.10;;;;;;5033940;28;20025;-70
2023/06/25 05:23:08;;;;;;;28.80;22.77;;;22.80;97.10;;;;;;5034508;28;20065;-72
2023/06/25 05:25:35;;;;;;;26.27;23.17;;;22.80;97.20;;;;;;5034213;28;20542;-69
2023/06/25 05:28:01;;;;;;;25.98;22.77;;;22.90;97.20;;;;;;5033973;28;20025;-71
2023/06/25 05:30:31;;;;;;;25.67;22.17;;;22.80;97.00;;;;;;5034375;28;20032;-71
2023/06/25 05:32:57;;;;;;;26.67;21.05;;;22.90;97.30;;;;;;5034073;28;20108;-68
2023/06/25 05:35:23;;;;;;;22.05;19.67;;;22.90;96.90;;;;;;5034151;28;20474;-68
2023/06/25 05:37:49;;;;;;;22.30;19.70;;;22.90;96.90;;;;;;5033999;28;20030;-72
2023/06/25 05:40:15;;;;;;;24.05;20.35;;;22.90;96.90;;;;;;5034222;28;20036;-70
2023/06/25 05:42:41;;;;;;;22.38;19.98;;;22.90;97.10;;;;;;5033722;28;20037;-68
2023/06/25 05:45:08;;;;;;;20.25;17.67;;;23.00;97.10;;;;;;5028073;28;20036;-70
2023/06/25 05:47:34;;;;;;;17.83;15.07;;;23.10;96.80;;;;;;5025266;28;20025;-71
2023/06/25 05:49:59;;;;;;;18.85;15.73;;;23.10;96.30;;;;;;5030479;28;20098;-67
2023/06/25 05:52:25;;;;;;;18.17;15.18;;;23.20;95.90;;;;;;5029081;28;20478;-68
2023/06/25 05:54:50;;;;;;;17.23;14.10;;;23.30;95.80;;;;;;5033358;28;20032;-68
2023/06/25 05:57:16;;;;;;;16.20;14.18;;;23.30;96.20;;;;;;5032255;28;20030;-68
2023/06/25 05:59:41;;;;;;;16.92;13.45;;;23.40;96.40;;;;;;5026609;28;20029;-68
2023/06/25 06:02:08;;;;;;;17.38;13.10;;;23.50;96.30;;;;;;5032989;28;20028;-68
2023/06/25 06:04:34;;;;;;;15.63;12.45;;;23.50;96.40;;;;;;5024955;28;20013;-68
2023/06/25 06:06:59;;;;;;;13.48;11.02;;;23.60;95.90;;;;;;5032298;28;20033;-68
2023/06/25 06:09:25;;;;;;;16.15;11.77;;;23.60;94.80;;;;;;5039375;28;20025;-68
2023/06/25 06:11:51;;;;;;;13.95;11.38;;;23.70;94.60;;;;;;5031908;28;20387;-68
2023/06/25 06:14:16;;;;;;;13.23;10.52;;;23.80;94.50;;;;;;5024041;28;20525;-68
2023/06/25 06:16:42;;;;;;;11.18;9.98;;;23.80;94.20;;;;;;5029077;28;20382;-70
2023/06/25 06:19:07;;;;;;;11.27;9.05;;;23.90;94.40;;;;;;5028681;28;20029;-69
2023/06/25 06:21:33;;;;;;;9.05;7.78;;;24.00;94.00;;;;;;5021031;28;20088;-70
2023/06/25 06:23:58;;;;;;;9.65;7.35;;;24.10;93.10;;;;;;5030180;28;20079;-71
2023/06/25 06:26:24;;;;;;;8.93;6.90;;;24.10;92.50;;;;;;5029080;28;20033;-69
2023/06/25 06:28:49;;;;;;;8.57;6.45;;;24.20;92.10;;;;;;5026685;28;20033;-69
2023/06/25 06:31:16;;;;;;;6.85;6.15;;;24.30;91.50;;;;;;5035926;28;20037;-70
2023/06/25 06:33:42;;;;;;;7.15;5.40;;;24.30;91.30;;;;;;5034318;28;20044;-67
2023/06/25 06:36:09;;;;;;;6.53;5.20;;;24.40;91.60;;;;;;5028400;28;20026;-69
2023/06/25 06:38:34;;;;;;;7.47;5.00;;;24.40;91.70;;;;;;5029920;28;20033;-68
2023/06/25 06:41:00;;;;;;;6.38;5.05;;;24.40;91.40;;;;;;5022714;28;20389;-68
2023/06/25 06:43:26;;;;;;;6.53;4.88;;;24.50;90.90;;;;;;5024564;28;20029;-68
2023/06/25 06:45:51;;;;;;;6.78;4.72;;;24.60;90.40;;;;;;5023148;28;20049;-68
2023/06/25 06:48:17;;;;;;;7.55;4.93;;;24.70;90.30;;;;;;5025580;28;20037;-69
2023/06/25 06:50:42;;;;;;;5.75;4.28;;;24.80;90.30;;;;;;5022875;28;20045;-70
2023/06/25 06:53:08;;;;;;;5.85;5.20;;;24.80;90.20;;;;;;5031428;28;20030;-68
2023/06/25 06:55:33;;;;;;;6.63;5.93;;;24.90;91.10;;;;;;5028702;28;20076;-70
2023/06/25 06:58:00;;;;;;;8.43;5.35;;;24.90;92.20;;;;;;5029721;28;20022;-67
2023/06/25 07:00:26;;;;;;;9.35;4.97;;;24.90;92.40;;;;;;5027064;28;20017;-68
2023/06/25 07:02:55;;;;;;;5.60;5.00;;;24.90;91.20;;;;;;5023856;28;20036;-68
2023/06/25 07:05:22;;;;;;;6.43;4.82;;;25.00;90.80;;;;;;5026765;28;20026;-68
2023/06/25 07:07:47;;;;;;;6.00;5.30;;;25.00;90.90;;;;;;5026457;28;20034;-69
2023/06/25 07:10:13;;;;;;;6.55;3.97;;;25.00;90.20;;;;;;5025559;28;20034;-69
2023/06/25 07:12:38;;;;;;;6.85;4.40;;;25.10;90.00;;;;;;5022529;28;20033;-68
2023/06/25 07:15:05;;;;;;;6.63;3.80;;;25.10;90.00;;;;;;5019335;28;20487;-68
2023/06/25 07:17:30;;;;;;;6.45;3.67;;;25.10;88.90;;;;;;5037255;28;20497;-68
2023/06/25 07:19:56;;;;;;;6.00;3.90;;;25.20;89.30;;;;;;5026053;28;20057;-69
2023/06/25 07:22:22;;;;;;;6.25;3.90;;;25.30;88.70;;;;;;5019009;28;20037;-69
2023/06/25 07:24:48;;;;;;;4.20;3.80;;;25.30;88.80;;;;;;5028325;28;20445;-70
2023/06/25 07:27:13;;;;;;;4.85;3.42;;;25.40;89.70;;;;;;5023256;28;20477;-69
2023/06/25 07:29:39;;;;;;;4.35;3.42;;;25.40;89.70;;;;;;5017384;28;20025;-70
2023/06/25 07:32:05;;;;;;;6.15;3.83;;;25.50;90.00;;;;;;5018142;28;20041;-70
2023/06/25 07:34:31;;;;;;;8.88;3.42;;;25.60;90.00;;;;;;5021299;28;20022;-71
2023/06/25 07:36:57;;;;;;;4.43;3.35;;;25.60;90.10;;;;;;5019691;28;20037;-71
2023/06/25 07:39:25;;;;;;;5.38;3.85;;;25.70;90.10;;;;;;5021304;28;20033;-67
2023/06/25 07:41:52;;;;;;;4.05;3.22;;;25.70;90.10;;;;;;5017268;28;20108;-69
2023/06/25 07:44:17;;;;;;;5.32;4.15;;;25.80;89.90;;;;;;5020341;28;20033;-70
2023/06/25 07:46:43;;;;;;;6.18;3.60;;;25.90;90.10;;;;;;5026971;28;20017;-68
2023/06/25 07:49:09;;;;;;;5.97;3.38;;;26.00;90.10;;;;;;5032931;28;20479;-69
2023/06/25 07:51:34;;;;;;;5.38;3.50;;;26.00;90.00;;;;;;5026377;28;20045;-69
2023/06/25 07:54:00;;;;;;;9.52;4.50;;;26.00;90.00;;;;;;5045077;28;20067;-68
2023/06/25 07:56:25;;;;;;;6.65;4.63;;;26.20;89.80;;;;;;5035524;28;20056;-68
2023/06/25 07:58:51;;;;;;;4.03;3.63;;;26.30;89.00;;;;;;5035305;28;20025;-69
2023/06/25 08:01:16;;;;;;;6.38;4.60;;;26.30;89.30;;;;;;5035560;28;20033;-69
2023/06/25 08:03:42;;;;;;;5.43;3.40;;;26.40;89.40;;;;;;5033254;28;20028;-69
2023/06/25 08:06:07;;;;;;;7.22;3.85;;;26.50;88.80;;;;;;5034512;28;20036;-69
2023/06/25 08:08:33;;;;;;;6.95;3.72;;;26.40;88.60;;;;;;5033613;28;20033;-69
2023/06/25 08:10:58;;;;;;;5.97;3.78;;;26.40;88.40;;;;;;5035700;28;20120;-69
2023/06/25 08:13:24;;;;;;;7.38;3.50;;;26.40;88.40;;;;;;5044993;28;20108;-67
2023/06/25 08:15:50;;;;;;;5.45;3.45;;;26.50;88.80;;;;;;5047642;28;20382;-69
2023/06/25 08:18:16;;;;;;;8.70;3.75;;;26.60;88.90;;;;;;5031742;28;20025;-68
2023/06/25 08:20:43;;;;;;;6.78;3.58;;;26.60;88.90;;;;;;5034185;28;20386;-68
2023/06/25 08:23:08;;;;;;;8.13;3.67;;;26.60;88.60;;;;;;5034573;28;20075;-68
2023/06/25 08:25:34;;;;;;;7.50;3.88;;;26.80;87.90;;;;;;5033927;28;20029;-68
2023/06/25 08:27:59;;;;;;;5.05;3.97;;;26.70;87.60;;;;;;5034553;28;20068;-68
2023/06/25 08:30:25;;;;;;;4.93;3.30;;;26.80;87.80;;;;;;5034049;28;20060;-69
2023/06/25 08:32:50;;;;;;;6.90;3.88;;;26.80;87.80;;;;;;5034761;28;20442;-68
2023/06/25 08:35:16;;;;;;;4.85;3.58;;;26.80;87.60;;;;;;5034345;28;20033;-68
2023/06/25 08:37:42;;;;;;;5.50;2.92;;;26.90;88.00;;;;;;5033478;28;20113;-69
2023/06/25 08:40:11;;;;;;;4.95;3.40;;;26.90;88.00;;;;;;5033808;28;20033;-71
2023/06/25 08:42:37;;;;;;;3.85;3.08;;;27.00;87.70;;;;;;5034264;28;20037;-70
2023/06/25 08:45:03;;;;;;;4.30;3.17;;;27.00;87.70;;;;;;5033376;28;20044;-70
2023/06/25 08:47:36;;;;;;;5.72;3.45;;;27.00;87.40;;;;;;5028603;28;20029;-71
2023/06/25 08:50:02;;;;;;;4.97;3.45;;;27.00;86.90;;;;;;5033485;28;20025;-70
2023/06/25 08:52:28;;;;;;;4.35;2.63;;;27.10;86.80;;;;;;5029555;28;20113;-69
2023/06/25 08:54:54;;;;;;;5.13;3.10;;;27.00;86.70;;;;;;5043517;28;20116;-69
2023/06/25 08:57:20;;;;;;;4.88;3.65;;;27.10;86.90;;;;;;5027483;28;20014;-69
2023/06/25 08:59:45;;;;;;;6.40;3.72;;;27.10;87.10;;;;;;5033806;28;20029;-69
2023/06/25 09:02:11;;;;;;;7.00;3.85;;;27.10;86.90;;;;;;5027862;28;20021;-70
2023/06/25 09:04:37;;;;;;;8.43;3.40;;;27.20;86.60;;;;;;5034068;28;20535;-70
2023/06/25 09:07:15;;;;;;;4.22;2.70;;;27.20;86.70;;;;;;5032730;28;20568;-68
2023/06/25 09:09:44;;;;;;;6.82;3.20;;;27.30;86.60;;;;;;5033732;28;20025;-69
2023/06/25 09:12:10;;;;;;;5.10;3.05;;;27.30;86.50;;;;;;5033347;28;20104;-68
2023/06/25 09:14:36;;;;;;;4.93;3.25;;;27.30;86.40;;;;;;5033779;28;20494;-68
2023/06/25 09:17:03;;;;;;;4.78;3.45;;;27.30;86.40;;;;;;5033035;28;20101;-68
2023/06/25 09:19:28;;;;;;;3.60;2.92;;;27.30;86.40;;;;;;5033646;28;20140;-69
2023/06/25 09:21:54;;;;;;;5.53;3.30;;;27.40;86.10;;;;;;5032895;28;20104;-69
2023/06/25 09:24:21;;;;;;;3.60;2.95;;;27.40;86.20;;;;;;5033771;28;20501;-68
2023/06/25 09:26:53;;;;;;;3.38;2.83;;;27.40;86.00;;;;;;5033971;28;20028;-69
2023/06/25 09:29:23;;;;;;;3.28;2.63;;;27.40;85.70;;;;;;5034012;28;20482;-69
2023/06/25 09:31:49;;;;;;;7.75;2.95;;;27.40;85.80;;;;;;5033814;28;20033;-69
2023/06/25 09:34:16;;;;;;;4.97;3.50;;;27.40;86.10;;;;;;5033991;28;20022;-69
2023/06/25 09:36:42;;;;;;;5.00;3.40;;;27.40;85.90;;;;;;5032144;28;20032;-69
2023/06/25 09:39:10;;;;;;;3.88;2.92;;;27.40;85.40;;;;;;5020415;28;20060;-69
2023/06/25 09:41:46;;;;;;;5.57;3.05;;;27.50;85.20;;;;;;5033688;28;20038;-69
2023/06/25 09:44:12;;;;;;;3.38;2.78;;;27.50;84.90;;;;;;5033833;28;20029;-69
2023/06/25 09:46:39;;;;;;;3.90;3.10;;;27.50;85.40;;;;;;5033653;28;20632;-69
2023/06/25 09:49:07;;;;;;;3.40;3.10;;;27.50;85.50;;;;;;5033435;28;20021;-69
2023/06/25 09:51:47;;;;;;;3.72;3.30;;;27.40;85.40;;;;;;5033615;28;20753;-69
2023/06/25 09:54:17;;;;;;;3.55;2.90;;;27.50;85.10;;;;;;5047510;28;20021;-69
2023/06/25 09:56:44;;;;;;;5.15;3.00;;;27.50;85.10;;;;;;5033413;28;20025;-69
2023/06/25 09:59:12;;;;;;;4.72;3.42;;;27.60;85.00;;;;;;5033653;28;20021;-69
2023/06/25 10:01:38;;;;;;;3.65;2.67;;;27.60;85.10;;;;;;5033504;28;20025;-68
2023/06/25 10:04:04;;;;;;;4.75;2.95;;;27.50;85.10;;;;;;5033149;28;20356;-69
2023/06/25 10:06:30;;;;;;;3.13;2.78;;;27.50;84.90;;;;;;5033314;28;20017;-69
2023/06/25 10:08:56;;;;;;;3.20;2.90;;;27.70;84.60;;;;;;5033019;28;20063;-68
2023/06/25 10:11:22;;;;;;;4.85;3.10;;;27.60;84.70;;;;;;5022388;28;20120;-69
2023/06/25 10:13:48;;;;;;;4.40;2.83;;;27.70;84.40;;;;;;5031538;28;20024;-69
2023/06/25 10:16:18;;;;;;;4.50;3.30;;;27.70;84.20;;;;;;5031481;28;20029;-69
2023/06/25 10:18:46;;;;;;;3.95;3.03;;;27.70;84.60;;;;;;5031208;28;20382;-69
2023/06/25 10:21:19;;;;;;;4.72;3.22;;;27.70;84.60;;;;;;5031791;28;20022;-68
2023/06/25 10:24:03;;;;;;;4.47;2.80;;;27.60;84.90;;;;;;5032277;28;20130;-68
2023/06/25 10:26:33;;;;;;;3.67;2.92;;;27.60;84.80;;;;;;5032647;28;20435;-68
2023/06/25 10:29:01;;;;;;;4.40;3.22;;;27.60;84.60;;;;;;5032276;28;20391;-68
2023/06/25 10:31:35;;;;;;;3.20;2.75;;;27.70;84.40;;;;;;5032240;28;20030;-69
2023/06/25 10:34:08;;;;;;;4.78;2.58;;;27.70;84.30;;;;;;5031436;28;20141;-69
2023/06/25 10:36:34;;;;;;;3.67;2.92;;;27.70;83.90;;;;;;5040827;28;20025;-70
2023/06/25 10:39:00;;;;;;;4.30;2.80;;;27.70;83.50;;;;;;5033746;28;20021;-69
2023/06/25 10:41:30;;;;;;;3.58;3.10;;;27.70;83.90;;;;;;5035399;28;20033;-69
2023/06/25 10:43:57;;;;;;;3.65;2.40;;;27.70;83.90;;;;;;5028243;28;20026;-71
2023/06/25 10:46:32;;;;;;;5.65;2.92;;;27.90;83.90;;;;;;5030396;28;20017;-72
2023/06/25 10:49:01;;;;;;;4.25;3.28;;;27.80;84.00;;;;;;5031685;28;20462;-71
2023/06/25 10:51:32;;;;;;;4.43;3.20;;;27.80;83.70;;;;;;5032118;28;20382;-69
2023/06/25 10:53:58;;;;;;;3.20;2.78;;;27.80;83.20;;;;;;5042351;28;20013;-70
2023/06/25 10:56:24;;;;;;;3.40;3.10;;;27.80;82.40;;;;;;5032536;28;20462;-71
2023/06/25 10:58:57;;;;;;;3.08;2.78;;;27.80;83.60;;;;;;5021829;28;20025;-72
2023/06/25 11:01:22;;;;;;;3.28;2.72;;;27.80;83.60;;;;;;5029805;28;20040;-71
2023/06/25 11:03:48;;;;;;;3.13;2.83;;;27.80;83.10;;;;;;5030932;28;20017;-70
2023/06/25 11:06:14;;;;;;;3.88;3.33;;;27.80;83.40;;;;;;5032710;28;20030;-70
2023/06/25 11:08:42;;;;;;;5.53;3.10;;;27.80;82.60;;;;;;5030517;28;20022;-69
2023/06/25 11:11:08;;;;;;;2.88;2.67;;;27.90;82.90;;;;;;5024417;28;20044;-71
2023/06/25 11:13:34;;;;;;;3.85;3.17;;;27.90;82.80;;;;;;5031805;28;20113;-70
2023/06/25 11:15:59;;;;;;;3.50;3.20;;;27.90;82.30;;;;;;5031259;28;20032;-70
2023/06/25 11:18:25;;;;;;;4.07;2.70;;;27.90;82.80;;;;;;5031541;28;20169;-71
2023/06/25 11:20:53;;;;;;;2.83;2.63;;;27.90;82.80;;;;;;5035401;28;20029;-72
2023/06/25 11:23:18;;;;;;;2.75;2.55;;;27.90;82.80;;;;;;5034880;28;20497;-69
2023/06/25 11:25:44;;;;;;;4.38;3.35;;;27.90;82.60;;;;;;5035420;28;20021;-71
2023/06/25 11:28:12;;;;;;;4.63;3.58;;;27.90;82.90;;;;;;5036534;28;20025;-69
2023/06/25 11:30:39;;;;;;;4.00;3.22;;;27.90;80.80;;;;;;5034544;28;20034;-69
2023/06/25 11:33:13;;;;;;;4.53;3.28;;;28.00;82.90;;;;;;5035393;28;20044;-69
2023/06/25 11:35:39;;;;;;;5.20;3.45;;;28.00;81.90;;;;;;5036304;28;20028;-69
2023/06/25 11:38:05;;;;;;;4.28;3.13;;;28.00;81.50;;;;;;5034815;28;20308;-68
2023/06/25 11:40:33;;;;;;;5.55;3.70;;;27.90;81.20;;;;;;5032949;28;20079;-67
2023/06/25 11:42:58;;;;;;;4.25;3.65;;;28.00;80.80;;;;;;5035803;28;20021;-70
2023/06/25 11:45:24;;;;;;;5.82;2.85;;;28.00;81.40;;;;;;5035558;28;20036;-70
2023/06/25 11:47:53;;;;;;;3.38;3.08;;;28.00;81.10;;;;;;5035386;28;20467;-68
2023/06/25 11:50:22;;;;;;;4.32;3.38;;;28.00;81.60;;;;;;5035913;28;20029;-69
2023/06/25 11:52:49;;;;;;;4.05;3.33;;;28.00;81.40;;;;;;5036222;28;20025;-67
2023/06/25 11:55:14;;;;;;;3.88;3.08;;;28.00;81.70;;;;;;5034700;28;20065;-67
2023/06/25 11:57:40;;;;;;;3.83;3.42;;;28.00;81.70;;;;;;5035150;28;20057;-67
2023/06/25 12:00:07;;;;;;;4.40;3.60;;;28.00;81.70;;;;;;5034559;28;20018;-66
2023/06/25 12:02:33;;;;;;;3.97;3.33;;;28.00;81.70;;;;;;5035462;28;20041;-70
2023/06/25 12:04:58;;;;;;;4.47;3.72;;;28.00;81.50;;;;;;5034962;28;20021;-69
2023/06/25 12:07:24;;;;;;;3.95;3.22;;;28.00;81.70;;;;;;5033979;28;20028;-70
2023/06/25 12:09:50;;;;;;;7.28;3.22;;;28.00;81.40;;;;;;5030471;28;20040;-68
2023/06/25 12:12:16;;;;;;;4.30;3.30;;;28.00;80.40;;;;;;5034933;28;20453;-68
2023/06/25 12:14:42;;;;;;;3.42;3.10;;;28.00;80.90;;;;;;5032098;28;20032;-67
2023/06/25 12:17:07;;;;;;;4.13;3.42;;;28.00;80.90;;;;;;5023707;28;20025;-68
2023/06/25 12:19:33;;;;;;;3.75;3.33;;;28.00;81.30;;;;;;5033683;28;20474;-68
2023/06/25 12:21:58;;;;;;;3.85;3.53;;;28.00;81.40;;;;;;5032514;28;20028;-67
2023/06/25 12:24:24;;;;;;;3.60;3.10;;;28.00;81.60;;;;;;5032673;28;20021;-71
2023/06/25 12:26:50;;;;;;;4.30;3.15;;;28.00;81.30;;;;;;5031308;28;20135;-68
2023/06/25 12:29:15;;;;;;;3.38;3.03;;;28.10;81.30;;;;;;5034409;28;20025;-67
2023/06/25 12:31:41;;;;;;;5.22;3.80;;;28.00;81.20;;;;;;5016676;28;20069;-69